createdAt,value
2023-04-22T00:00:36.000Z,10.5
2023-04-22T00:01:52.000Z,10.5
2023-04-22T00:03:08.000Z,10.5
2023-04-22T00:04:24.000Z,10.4
2023-04-22T00:05:40.000Z,10.3
2023-04-22T00:06:57.000Z,10.2
2023-04-22T00:08:13.000Z,10.2
2023-04-22T00:09:29.000Z,10.1
2023-04-22T00:10:45.000Z,10.1
2023-04-22T00:12:02.000Z,10
2023-04-22T00:13:18.000Z,10.1
2023-04-22T00:14:34.000Z,10.2
2023-04-22T00:15:50.000Z,10.3
2023-04-22T00:17:07.000Z,10.3
2023-04-22T00:18:22.000Z,10.2
2023-04-22T00:19:38.000Z,10.2
2023-04-22T00:20:54.000Z,10.2
2023-04-22T00:22:11.000Z,10.1
2023-04-22T00:23:27.000Z,10.1
2023-04-22T00:24:43.000Z,10.1
2023-04-22T00:25:59.000Z,10.1
2023-04-22T00:27:15.000Z,10
2023-04-22T00:28:32.000Z,9.9
2023-04-22T00:29:48.000Z,9.9
2023-04-22T00:31:04.000Z,9.8
2023-04-22T00:32:20.000Z,9.7
2023-04-22T00:33:37.000Z,9.7
2023-04-22T00:34:52.000Z,9.6
2023-04-22T00:36:07.000Z,9.6
2023-04-22T00:37:23.000Z,9.7
2023-04-22T00:38:40.000Z,9.7
2023-04-22T00:39:56.000Z,9.8
2023-04-22T00:41:12.000Z,9.8
2023-04-22T00:42:28.000Z,9.8
2023-04-22T00:43:45.000Z,9.8
2023-04-22T00:45:01.000Z,9.8
2023-04-22T00:46:17.000Z,9.7
2023-04-22T00:47:33.000Z,9.6
2023-04-22T00:48:49.000Z,9.6
2023-04-22T00:50:06.000Z,9.5
2023-04-22T00:51:22.000Z,9.5
2023-04-22T00:52:38.000Z,9.5
2023-04-22T00:53:53.000Z,9.5
2023-04-22T00:55:10.000Z,9.6
2023-04-22T00:56:26.000Z,9.6
2023-04-22T00:57:42.000Z,9.6
2023-04-22T00:58:58.000Z,9.6
2023-04-22T01:00:15.000Z,9.5
2023-04-22T01:01:31.000Z,9.4
2023-04-22T01:02:47.000Z,9.4
2023-04-22T01:04:03.000Z,9.3
2023-04-22T01:05:20.000Z,9.3
2023-04-22T01:06:36.000Z,9.3
2023-04-22T01:07:52.000Z,9.2
2023-04-22T01:09:08.000Z,9.1
2023-04-22T01:10:23.000Z,9.1
2023-04-22T01:11:40.000Z,9.1
2023-04-22T01:12:56.000Z,9.1
2023-04-22T01:14:12.000Z,9.1
2023-04-22T01:15:28.000Z,9.1
2023-04-22T01:16:45.000Z,9.1
2023-04-22T01:18:01.000Z,9.2
2023-04-22T01:19:17.000Z,9.2
2023-04-22T01:20:33.000Z,9.2
2023-04-22T01:21:50.000Z,9.1
2023-04-22T01:23:06.000Z,9.1
2023-04-22T01:24:22.000Z,9
2023-04-22T01:25:38.000Z,9
2023-04-22T01:26:54.000Z,8.9
2023-04-22T01:28:10.000Z,8.9
2023-04-22T01:29:26.000Z,8.9
2023-04-22T01:30:42.000Z,8.9
2023-04-22T01:31:58.000Z,8.9
2023-04-22T01:33:15.000Z,9
2023-04-22T01:34:31.000Z,9
2023-04-22T01:35:47.000Z,8.9
2023-04-22T01:37:03.000Z,8.9
2023-04-22T01:38:20.000Z,8.9
2023-04-22T01:39:36.000Z,8.9
2023-04-22T01:40:52.000Z,8.8
2023-04-22T01:42:08.000Z,8.8
2023-04-22T01:43:25.000Z,8.8
2023-04-22T01:44:40.000Z,8.8
2023-04-22T01:45:56.000Z,8.8
2023-04-22T01:47:12.000Z,8.8
2023-04-22T01:48:29.000Z,8.8
2023-04-22T01:49:45.000Z,8.8
2023-04-22T01:51:01.000Z,8.8
2023-04-22T01:52:17.000Z,8.8
2023-04-22T01:53:33.000Z,8.7
2023-04-22T01:54:50.000Z,8.7
2023-04-22T01:56:06.000Z,8.7
2023-04-22T01:57:22.000Z,8.7
2023-04-22T01:58:38.000Z,8.6
2023-04-22T01:59:55.000Z,8.6
2023-04-22T02:01:10.000Z,8.6
2023-04-22T02:02:26.000Z,8.6
2023-04-22T02:03:42.000Z,8.6
2023-04-22T02:04:59.000Z,8.5
2023-04-22T02:06:15.000Z,8.5
2023-04-22T02:07:31.000Z,8.5
2023-04-22T02:08:47.000Z,8.6
2023-04-22T02:10:04.000Z,8.6
2023-04-22T02:11:20.000Z,8.6
2023-04-22T02:12:36.000Z,8.6
2023-04-22T02:13:52.000Z,8.6
2023-04-22T02:15:08.000Z,8.7
2023-04-22T02:16:25.000Z,8.7
2023-04-22T02:17:40.000Z,8.7
2023-04-22T02:18:56.000Z,8.8
2023-04-22T02:20:12.000Z,8.8
2023-04-22T02:21:29.000Z,8.8
2023-04-22T02:22:45.000Z,8.8
2023-04-22T02:24:01.000Z,8.9
2023-04-22T02:25:17.000Z,9
2023-04-22T02:26:34.000Z,9
2023-04-22T02:27:50.000Z,9
2023-04-22T02:29:06.000Z,9.1
2023-04-22T02:30:22.000Z,9.1
2023-04-22T02:31:39.000Z,9.1
2023-04-22T02:32:55.000Z,9.2
2023-04-22T02:34:11.000Z,9.2
2023-04-22T02:35:26.000Z,9.2
2023-04-22T02:36:42.000Z,9.2
2023-04-22T02:37:59.000Z,9.2
2023-04-22T02:39:15.000Z,9.2
2023-04-22T02:40:31.000Z,9.2
2023-04-22T02:41:47.000Z,9.3
2023-04-22T02:43:04.000Z,9.3
2023-04-22T02:44:20.000Z,9.4
2023-04-22T02:45:36.000Z,9.4
2023-04-22T02:46:52.000Z,9.4
2023-04-22T02:48:09.000Z,9.5
2023-04-22T02:49:25.000Z,9.5
2023-04-22T02:50:41.000Z,9.5
2023-04-22T02:51:56.000Z,9.5
2023-04-22T02:53:13.000Z,9.5
2023-04-22T02:54:29.000Z,9.5
2023-04-22T02:55:45.000Z,9.6
2023-04-22T02:57:01.000Z,9.6
2023-04-22T02:58:17.000Z,9.6
2023-04-22T02:59:34.000Z,9.6
2023-04-22T03:00:50.000Z,9.6
2023-04-22T03:02:06.000Z,9.6
2023-04-22T03:03:22.000Z,9.6
2023-04-22T03:04:39.000Z,9.6
2023-04-22T03:05:55.000Z,9.7
2023-04-22T03:07:11.000Z,9.7
2023-04-22T03:08:27.000Z,9.7
2023-04-22T03:09:44.000Z,9.6
2023-04-22T03:10:59.000Z,9.6
2023-04-22T03:12:15.000Z,9.6
2023-04-22T03:13:31.000Z,9.6
2023-04-22T03:14:48.000Z,9.6
2023-04-22T03:16:04.000Z,9.7
2023-04-22T03:17:20.000Z,9.7
2023-04-22T03:18:36.000Z,9.7
2023-04-22T03:19:52.000Z,9.7
2023-04-22T03:21:09.000Z,9.7
2023-04-22T03:22:25.000Z,9.7
2023-04-22T03:23:41.000Z,9.7
2023-04-22T03:24:57.000Z,9.8
2023-04-22T03:26:14.000Z,9.8
2023-04-22T03:27:30.000Z,9.8
2023-04-22T03:28:45.000Z,9.8
2023-04-22T03:30:01.000Z,9.8
2023-04-22T03:31:18.000Z,9.8
2023-04-22T03:32:34.000Z,9.8
2023-04-22T03:33:50.000Z,9.8
2023-04-22T03:35:06.000Z,9.8
2023-04-22T03:36:23.000Z,9.8
2023-04-22T03:37:39.000Z,9.8
2023-04-22T03:38:55.000Z,9.8
2023-04-22T03:40:11.000Z,9.8
2023-04-22T03:41:27.000Z,9.8
2023-04-22T03:42:44.000Z,9.8
2023-04-22T03:44:00.000Z,9.8
2023-04-22T03:45:15.000Z,9.8
2023-04-22T03:46:31.000Z,9.8
2023-04-22T03:47:48.000Z,9.8
2023-04-22T03:49:04.000Z,9.8
2023-04-22T03:50:20.000Z,9.9
2023-04-22T03:51:36.000Z,9.9
2023-04-22T03:52:53.000Z,9.9
2023-04-22T03:54:09.000Z,9.9
2023-04-22T03:55:25.000Z,9.9
2023-04-22T03:56:41.000Z,9.9
2023-04-22T03:57:58.009Z,9.9
2023-04-22T03:59:14.000Z,10
2023-04-22T04:00:30.000Z,10
2023-04-22T04:01:45.000Z,9.9
2023-04-22T04:03:01.000Z,10
2023-04-22T04:04:18.000Z,10
2023-04-22T04:05:34.000Z,10
2023-04-22T04:06:50.000Z,9.9
2023-04-22T04:08:06.000Z,9.9
2023-04-22T04:09:23.000Z,10
2023-04-22T04:10:39.000Z,10
2023-04-22T04:11:55.000Z,10
2023-04-22T04:13:11.000Z,10
2023-04-22T04:14:28.000Z,10
2023-04-22T04:15:44.000Z,10
2023-04-22T04:17:00.000Z,10
2023-04-22T04:18:15.000Z,10
2023-04-22T04:19:32.000Z,10
2023-04-22T04:20:48.000Z,10
2023-04-22T04:22:04.000Z,10
2023-04-22T04:23:20.000Z,10
2023-04-22T04:24:36.000Z,10
2023-04-22T04:25:53.000Z,10
2023-04-22T04:27:09.000Z,10
2023-04-22T04:28:25.000Z,10
2023-04-22T04:29:41.000Z,10
2023-04-22T04:30:58.000Z,10
2023-04-22T04:32:14.000Z,10
2023-04-22T04:33:30.000Z,10.1
2023-04-22T04:34:45.000Z,10.1
2023-04-22T04:36:02.000Z,10.1
2023-04-22T04:37:18.000Z,10
2023-04-22T04:38:34.000Z,10
2023-04-22T04:39:50.000Z,10
2023-04-22T04:41:07.000Z,10.1
2023-04-22T04:42:23.000Z,10.1
2023-04-22T04:43:39.000Z,10.1
2023-04-22T04:44:55.000Z,10.1
2023-04-22T04:46:11.000Z,10.1
2023-04-22T04:47:28.000Z,10.1
2023-04-22T04:48:44.000Z,10.1
2023-04-22T04:50:00.000Z,10.1
2023-04-22T04:51:15.000Z,10.2
2023-04-22T04:52:32.000Z,10.2
2023-04-22T04:53:48.000Z,10.2
2023-04-22T04:55:04.000Z,10.2
2023-04-22T04:56:20.000Z,10.2
2023-04-22T04:57:37.000Z,10.2
2023-04-22T04:58:53.000Z,10.2
2023-04-22T05:00:09.000Z,10.2
2023-04-22T05:01:25.000Z,10.3
2023-04-22T05:02:42.000Z,10.3
2023-04-22T05:03:58.000Z,10.3
2023-04-22T05:05:14.000Z,10.3
2023-04-22T05:06:30.000Z,10.4
2023-04-22T05:07:45.000Z,10.5
2023-04-22T05:09:02.000Z,10.5
2023-04-22T05:10:18.000Z,10.5
2023-04-22T05:11:34.000Z,10.6
2023-04-22T05:12:50.000Z,10.6
2023-04-22T05:14:07.000Z,10.6
2023-04-22T05:15:23.000Z,10.6
2023-04-22T05:16:39.000Z,10.6
2023-04-22T05:17:55.000Z,10.6
2023-04-22T05:19:12.000Z,10.6
2023-04-22T05:20:28.000Z,10.6
2023-04-22T05:21:44.000Z,10.7
2023-04-22T05:23:00.000Z,10.7
2023-04-22T05:24:16.000Z,10.7
2023-04-22T05:25:32.000Z,10.8
2023-04-22T05:26:48.000Z,10.8
2023-04-22T05:28:04.000Z,10.8
2023-04-22T05:29:20.000Z,10.8
2023-04-22T05:30:37.000Z,10.8
2023-04-22T05:31:53.000Z,10.8
2023-04-22T05:33:09.000Z,10.8
2023-04-22T05:34:25.000Z,10.8
2023-04-22T05:35:42.000Z,10.8
2023-04-22T05:36:58.000Z,10.8
2023-04-22T05:38:14.000Z,10.8
2023-04-22T05:39:30.000Z,10.8
2023-04-22T05:40:46.000Z,10.8
2023-04-22T05:42:02.000Z,10.8
2023-04-22T05:43:18.000Z,10.8
2023-04-22T05:44:34.000Z,10.8
2023-04-22T05:45:51.000Z,10.9
2023-04-22T05:47:07.000Z,10.9
2023-04-22T05:48:23.000Z,10.9
2023-04-22T05:49:39.000Z,10.9
2023-04-22T05:50:55.000Z,11
2023-04-22T05:52:12.000Z,11
2023-04-22T05:53:28.000Z,11.1
2023-04-22T05:54:44.000Z,11.1
2023-04-22T05:56:00.000Z,11.2
2023-04-22T05:57:16.000Z,11.2
2023-04-22T05:58:32.000Z,11.2
2023-04-22T05:59:48.000Z,11.3
2023-04-22T06:01:04.000Z,11.3
2023-04-22T06:02:21.000Z,11.3
2023-04-22T06:03:37.000Z,11.4
2023-04-22T06:04:53.000Z,11.4
2023-04-22T06:06:09.000Z,11.4
2023-04-22T06:07:26.000Z,11.5
2023-04-22T06:08:42.000Z,11.5
2023-04-22T06:09:58.000Z,11.6
2023-04-22T06:11:14.000Z,11.6
2023-04-22T06:12:30.000Z,11.6
2023-04-22T06:13:46.000Z,11.7
2023-04-22T06:15:02.000Z,11.7
2023-04-22T06:16:18.000Z,11.8
2023-04-22T06:17:33.000Z,11.8
2023-04-22T06:18:49.000Z,11.9
2023-04-22T06:20:05.000Z,12
2023-04-22T06:21:21.000Z,12
2023-04-22T06:22:37.000Z,12.1
2023-04-22T06:23:54.000Z,12.1
2023-04-22T06:25:10.000Z,12.2
2023-04-22T06:26:25.000Z,12.2
2023-04-22T06:27:40.000Z,12.2
2023-04-22T06:28:57.000Z,12.3
2023-04-22T06:30:13.000Z,12.3
2023-04-22T06:31:29.000Z,12.3
2023-04-22T06:32:45.000Z,12.4
2023-04-22T06:34:02.000Z,12.4
2023-04-22T06:35:18.000Z,12.4
2023-04-22T06:36:34.000Z,12.5
2023-04-22T06:37:50.000Z,12.5
2023-04-22T06:39:06.000Z,12.5
2023-04-22T06:40:23.000Z,12.5
2023-04-22T06:41:39.000Z,12.6
2023-04-22T06:42:55.000Z,12.6
2023-04-22T06:44:10.000Z,12.7
2023-04-22T06:45:27.000Z,12.7
2023-04-22T06:46:43.000Z,12.8
2023-04-22T06:47:59.000Z,12.8
2023-04-22T06:49:15.000Z,12.9
2023-04-22T06:50:32.000Z,12.9
2023-04-22T06:51:48.000Z,13
2023-04-22T06:53:04.000Z,13.1
2023-04-22T06:54:20.000Z,13.2
2023-04-22T06:55:37.000Z,13.3
2023-04-22T06:56:53.000Z,13.4
2023-04-22T06:58:09.000Z,13.5
2023-04-22T06:59:25.000Z,13.5
2023-04-22T07:00:40.000Z,13.6
2023-04-22T07:01:57.000Z,13.7
2023-04-22T07:03:13.000Z,13.7
2023-04-22T07:04:29.000Z,13.8
2023-04-22T07:05:45.000Z,13.8
2023-04-22T07:07:02.000Z,13.8
2023-04-22T07:08:18.000Z,13.9
2023-04-22T07:09:34.000Z,13.9
2023-04-22T07:10:50.000Z,14
2023-04-22T07:12:07.000Z,14.1
2023-04-22T07:13:23.000Z,14.1
2023-04-22T07:14:39.000Z,14.2
2023-04-22T07:15:55.000Z,14.1
2023-04-22T07:17:11.000Z,14.2
2023-04-22T07:18:27.000Z,14.3
2023-04-22T07:19:43.000Z,14.4
2023-04-22T07:20:59.000Z,14.4
2023-04-22T07:22:15.000Z,14.5
2023-04-22T07:23:32.000Z,14.5
2023-04-22T07:24:48.000Z,14.5
2023-04-22T07:26:04.000Z,14.6
2023-04-22T07:27:20.000Z,14.7
2023-04-22T07:28:37.000Z,14.8
2023-04-22T07:29:53.000Z,14.9
2023-04-22T07:31:09.000Z,15
2023-04-22T07:32:25.000Z,15.1
2023-04-22T07:33:41.000Z,15.1
2023-04-22T07:34:57.000Z,15.1
2023-04-22T07:36:13.000Z,15.1
2023-04-22T07:37:29.000Z,15.2
2023-04-22T07:38:46.000Z,15
2023-04-22T07:40:02.000Z,15
2023-04-22T07:41:18.000Z,15
2023-04-22T07:42:34.000Z,15
2023-04-22T07:43:50.000Z,15
2023-04-22T07:45:07.000Z,15
2023-04-22T07:46:23.000Z,15.1
2023-04-22T07:47:39.000Z,15.1
2023-04-22T07:48:55.000Z,15.2
2023-04-22T07:50:11.000Z,15.3
2023-04-22T07:51:27.000Z,15.4
2023-04-22T07:52:43.000Z,15.4
2023-04-22T07:55:16.000Z,15.5
2023-04-22T07:56:32.000Z,15.6
2023-04-22T07:57:48.000Z,15.6
2023-04-22T07:59:04.000Z,15.7
2023-04-22T08:00:21.000Z,15.6
2023-04-22T08:01:37.000Z,15.6
2023-04-22T08:02:53.000Z,15.6
2023-04-22T08:04:09.000Z,15.7
2023-04-22T08:05:25.000Z,15.7
2023-04-22T08:06:42.000Z,15.7
2023-04-22T08:07:57.000Z,15.7
2023-04-22T08:09:13.000Z,15.7
2023-04-22T08:10:29.000Z,15.5
2023-04-22T08:11:46.000Z,15.6
2023-04-22T08:13:01.000Z,15.6
2023-04-22T08:14:16.000Z,15.7
2023-04-22T08:15:32.000Z,15.9
2023-04-22T08:16:49.000Z,15.9
2023-04-22T08:18:05.000Z,16.1
2023-04-22T08:19:21.000Z,16.2
2023-04-22T08:20:36.000Z,16.3
2023-04-22T08:21:52.000Z,16.4
2023-04-22T08:23:08.000Z,16.5
2023-04-22T08:24:24.000Z,16.6
2023-04-22T08:25:40.000Z,16.6
2023-04-22T08:26:57.000Z,16.7
2023-04-22T08:28:13.000Z,16.8
2023-04-22T08:29:29.000Z,16.9
2023-04-22T08:30:45.000Z,17
2023-04-22T08:32:01.000Z,17
2023-04-22T08:33:18.000Z,17.1
2023-04-22T08:34:34.000Z,17.1
2023-04-22T08:35:50.000Z,17.1
2023-04-22T08:37:06.000Z,17.2
2023-04-22T08:38:22.000Z,17.3
2023-04-22T08:39:38.000Z,17.3
2023-04-22T08:40:54.000Z,17.4
2023-04-22T08:42:10.000Z,17.5
2023-04-22T08:43:27.000Z,17.7
2023-04-22T08:44:43.000Z,17.7
2023-04-22T08:45:59.000Z,17.9
2023-04-22T08:47:14.000Z,18.1
2023-04-22T08:48:30.000Z,18.2
2023-04-22T08:49:45.000Z,18.5
2023-04-22T08:51:00.000Z,18.8
2023-04-22T08:52:16.000Z,19
2023-04-22T08:53:33.000Z,19.1
2023-04-22T08:54:49.000Z,19.3
2023-04-22T08:56:05.000Z,19.3
2023-04-22T08:57:21.000Z,19.3
2023-04-22T08:58:37.000Z,19.3
2023-04-22T08:59:54.000Z,19.3
2023-04-22T09:01:10.000Z,19.1
2023-04-22T09:02:26.000Z,19.3
2023-04-22T09:03:42.000Z,19.3
2023-04-22T09:04:59.000Z,19.4
2023-04-22T09:06:14.000Z,19.5
2023-04-22T09:07:30.000Z,19.4
2023-04-22T09:08:46.000Z,19.4
2023-04-22T09:10:03.000Z,19.1
2023-04-22T09:11:19.000Z,19.2
2023-04-22T09:12:35.000Z,19.3
2023-04-22T09:13:51.000Z,19.5
2023-04-22T09:15:08.000Z,19.4
2023-04-22T09:16:23.000Z,19.5
2023-04-22T09:17:38.000Z,19.5
2023-04-22T09:18:54.000Z,19.6
2023-04-22T09:20:11.000Z,19.5
2023-04-22T09:21:26.000Z,19.4
2023-04-22T09:22:41.000Z,19.5
2023-04-22T09:23:57.000Z,19.4
2023-04-22T09:25:14.000Z,19.5
2023-04-22T09:26:30.000Z,19.6
2023-04-22T09:27:46.000Z,19.6
2023-04-22T09:29:02.000Z,19.6
2023-04-22T09:30:18.000Z,19.6
2023-04-22T09:31:35.000Z,19.6
2023-04-22T09:32:51.000Z,19.8
2023-04-22T09:34:07.000Z,19.8
2023-04-22T09:35:23.000Z,19.9
2023-04-22T09:36:40.000Z,20
2023-04-22T09:37:56.000Z,20.1
2023-04-22T09:39:11.000Z,20.2
2023-04-22T09:40:27.000Z,20.3
2023-04-22T09:41:44.000Z,20.3
2023-04-22T09:43:00.000Z,20.4
2023-04-22T09:44:16.000Z,20.3
2023-04-22T09:45:32.000Z,20.4
2023-04-22T09:46:49.000Z,20.5
2023-04-22T09:48:04.000Z,20.6
2023-04-22T09:49:19.000Z,20.7
2023-04-22T09:50:34.000Z,20.6
2023-04-22T09:51:50.000Z,20.6
2023-04-22T09:53:06.000Z,20.4
2023-04-22T09:54:22.000Z,20.5
2023-04-22T09:55:38.000Z,20.5
2023-04-22T09:58:11.000Z,20.3
2023-04-22T09:59:27.000Z,20.4
2023-04-22T10:00:43.000Z,20.5
2023-04-22T10:01:59.000Z,20.7
2023-04-22T10:03:16.000Z,20.7
2023-04-22T10:04:32.000Z,20.8
2023-04-22T10:05:48.000Z,20.9
2023-04-22T10:07:04.000Z,20.8
2023-04-22T10:08:21.000Z,20.7
2023-04-22T10:09:36.000Z,20.8
2023-04-22T10:10:52.000Z,20.8
2023-04-22T10:12:08.000Z,20.8
2023-04-22T10:13:25.000Z,20.8
2023-04-22T10:14:41.000Z,20.9
2023-04-22T10:15:57.000Z,20.9
2023-04-22T10:17:13.000Z,20.9
2023-04-22T10:18:29.000Z,21
2023-04-22T10:19:44.000Z,21
2023-04-22T10:21:00.000Z,21.1
2023-04-22T10:22:16.000Z,21.1
2023-04-22T10:23:32.000Z,20.9
2023-04-22T10:24:48.000Z,20.9
2023-04-22T10:26:03.000Z,21
2023-04-22T10:27:19.000Z,21.1
2023-04-22T10:28:35.000Z,21.1
2023-04-22T10:29:52.000Z,20.9
2023-04-22T10:31:08.000Z,21
2023-04-22T10:32:24.000Z,21.1
2023-04-22T10:33:40.000Z,21.3
2023-04-22T10:34:57.000Z,21.5
2023-04-22T10:36:13.000Z,21.7
2023-04-22T10:37:29.000Z,21.8
2023-04-22T10:38:45.000Z,21.8
2023-04-22T10:40:02.000Z,21.7
2023-04-22T10:41:18.000Z,21.8
2023-04-22T10:42:33.000Z,21.8
2023-04-22T10:43:49.000Z,21.7
2023-04-22T10:45:05.000Z,21.6
2023-04-22T10:46:22.000Z,21.6
2023-04-22T10:47:38.000Z,21.6
2023-04-22T10:48:54.000Z,21.7
2023-04-22T10:50:10.000Z,21.7
2023-04-22T10:51:27.000Z,21.7
2023-04-22T10:52:43.000Z,21.5
2023-04-22T10:53:59.000Z,21.6
2023-04-22T10:55:15.000Z,21.8
2023-04-22T10:56:32.000Z,22
2023-04-22T10:57:48.000Z,22.2
2023-04-22T10:59:03.000Z,22.3
2023-04-22T11:00:19.000Z,22.2
2023-04-22T11:01:36.000Z,22.2
2023-04-22T11:02:52.000Z,22.2
2023-04-22T11:04:08.000Z,22.2
2023-04-22T11:05:24.000Z,22.2
2023-04-22T11:06:40.000Z,22.2
2023-04-22T11:07:57.000Z,22.3
2023-04-22T11:09:13.000Z,22.3
2023-04-22T11:10:29.000Z,22.4
2023-04-22T11:11:45.000Z,22.5
2023-04-22T11:13:02.000Z,22.6
2023-04-22T11:14:18.000Z,22.6
2023-04-22T11:15:33.000Z,22.6
2023-04-22T11:16:49.000Z,22.6
2023-04-22T11:18:06.000Z,22.6
2023-04-22T11:19:22.000Z,22.7
2023-04-22T11:20:38.000Z,22.9
2023-04-22T11:21:54.000Z,23
2023-04-22T11:23:11.000Z,23
2023-04-22T11:24:27.000Z,23
2023-04-22T11:25:43.000Z,23.2
2023-04-22T11:26:59.000Z,23.3
2023-04-22T11:28:15.000Z,23.3
2023-04-22T11:29:32.000Z,23.4
2023-04-22T11:30:48.000Z,23.3
2023-04-22T11:32:03.000Z,23.1
2023-04-22T11:33:19.000Z,23.1
2023-04-22T11:34:36.000Z,22.9
2023-04-22T11:35:52.000Z,22.7
2023-04-22T11:37:08.000Z,22.8
2023-04-22T11:38:24.000Z,23
2023-04-22T11:39:41.000Z,23.1
2023-04-22T11:40:57.000Z,23.1
2023-04-22T11:42:13.000Z,23.2
2023-04-22T11:43:29.000Z,23.3
2023-04-22T11:44:46.000Z,23.5
2023-04-22T11:46:02.000Z,23.5
2023-04-22T11:47:18.000Z,23.5
2023-04-22T11:48:33.000Z,23.5
2023-04-22T11:49:49.000Z,23.6
2023-04-22T11:51:06.000Z,23.7
2023-04-22T11:52:22.000Z,23.5
2023-04-22T11:53:38.000Z,23.4
2023-04-22T11:54:54.000Z,23.2
2023-04-22T11:56:11.000Z,23.2
2023-04-22T11:57:27.000Z,23.4
2023-04-22T11:58:43.000Z,23.7
2023-04-22T11:59:59.000Z,24.1
2023-04-22T12:01:16.000Z,24.2
2023-04-22T12:03:48.000Z,24.3
2023-04-22T12:05:03.000Z,24.4
2023-04-22T12:06:20.000Z,24.4
2023-04-22T12:07:36.000Z,24.4
2023-04-22T12:08:52.000Z,24.3
2023-04-22T12:10:08.000Z,24
2023-04-22T12:11:24.000Z,23.9
2023-04-22T12:12:40.000Z,23.9
2023-04-22T12:15:11.000Z,23.8
2023-04-22T12:16:26.000Z,23.8
2023-04-22T12:17:43.000Z,23.9
2023-04-22T12:18:58.000Z,23.9
2023-04-22T12:20:14.000Z,24
2023-04-22T12:21:30.000Z,24
2023-04-22T12:22:47.000Z,24
2023-04-22T12:24:03.000Z,23.9
2023-04-22T12:25:19.000Z,23.9
2023-04-22T12:26:35.000Z,23.9
2023-04-22T12:27:52.000Z,23.9
2023-04-22T12:29:08.000Z,24
2023-04-22T12:30:24.000Z,24.1
2023-04-22T12:31:40.000Z,24.1
2023-04-22T12:32:57.000Z,24.3
2023-04-22T12:34:13.000Z,24.5
2023-04-22T12:35:28.000Z,24.8
2023-04-22T12:36:44.000Z,24.9
2023-04-22T12:38:00.000Z,24.9
2023-04-22T12:39:17.000Z,24.4
2023-04-22T12:40:33.000Z,24.2
2023-04-22T12:41:49.000Z,24.1
2023-04-22T12:43:05.000Z,24
2023-04-22T12:44:22.000Z,24
2023-04-22T12:45:38.000Z,24
2023-04-22T12:46:54.000Z,23.9
2023-04-22T12:48:10.000Z,23.8
2023-04-22T12:49:27.000Z,23.8
2023-04-22T12:50:43.000Z,23.8
2023-04-22T12:51:58.000Z,24
2023-04-22T12:53:14.000Z,24.1
2023-04-22T12:54:31.000Z,24.2
2023-04-22T12:55:47.000Z,24.2
2023-04-22T12:57:03.000Z,24.3
2023-04-22T12:58:19.000Z,24.4
2023-04-22T12:59:35.000Z,24.3
2023-04-22T13:00:52.000Z,24.3
2023-04-22T13:02:08.000Z,24.1
2023-04-22T13:03:24.000Z,23.8
2023-04-22T13:04:40.000Z,23.6
2023-04-22T13:05:57.000Z,23.4
2023-04-22T13:07:13.000Z,23.4
2023-04-22T13:08:28.000Z,23.4
2023-04-22T13:09:44.000Z,23.5
2023-04-22T13:11:01.000Z,23.5
2023-04-22T13:12:17.000Z,23.5
2023-04-22T13:13:33.000Z,23.4
2023-04-22T13:14:49.000Z,23.2
2023-04-22T13:16:06.000Z,23.1
2023-04-22T13:17:22.000Z,23
2023-04-22T13:18:38.000Z,22.9
2023-04-22T13:19:54.000Z,22.8
2023-04-22T13:21:10.000Z,22.7
2023-04-22T13:22:26.000Z,22.6
2023-04-22T13:23:42.000Z,22.5
2023-04-22T13:24:58.000Z,22.6
2023-04-22T13:26:14.000Z,22.8
2023-04-22T13:27:31.000Z,22.9
2023-04-22T13:28:47.000Z,23.3
2023-04-22T13:30:03.000Z,24.1
2023-04-22T13:31:19.000Z,24
2023-04-22T13:32:36.000Z,23.8
2023-04-22T13:33:52.000Z,23.8
2023-04-22T13:35:08.000Z,23.5
2023-04-22T13:36:24.000Z,23.4
2023-04-22T13:37:40.000Z,23
2023-04-22T13:38:56.000Z,22.8
2023-04-22T13:40:12.000Z,22.8
2023-04-22T13:41:28.000Z,22.7
2023-04-22T13:42:44.000Z,22.6
2023-04-22T13:44:01.000Z,22.7
2023-04-22T13:45:17.000Z,22.7
2023-04-22T13:46:33.000Z,22.8
2023-04-22T13:47:49.000Z,22.6
2023-04-22T13:49:06.000Z,22.7
2023-04-22T13:50:22.000Z,22.7
2023-04-22T13:51:38.000Z,22.7
2023-04-22T13:52:54.000Z,22.9
2023-04-22T13:54:10.000Z,23.1
2023-04-22T13:55:26.000Z,23.4
2023-04-22T13:56:42.000Z,23.3
2023-04-22T13:57:58.000Z,23.1
2023-04-22T13:59:15.000Z,23.1
2023-04-22T14:00:31.000Z,22.9
2023-04-22T14:01:47.000Z,22.8
2023-04-22T14:03:03.000Z,22.7
2023-04-22T14:04:19.000Z,22.5
2023-04-22T14:05:36.000Z,22.5
2023-04-22T14:06:52.000Z,22.7
2023-04-22T14:08:08.000Z,22.8
2023-04-22T14:09:24.000Z,23
2023-04-22T14:10:40.000Z,23
2023-04-22T14:11:56.000Z,24
2023-04-22T14:13:12.000Z,24.4
2023-04-22T14:14:28.000Z,25.1
2023-04-22T14:15:45.000Z,26
2023-04-22T14:17:01.000Z,26.4
2023-04-22T14:18:17.000Z,25.8
2023-04-22T14:19:33.000Z,25.5
2023-04-22T14:20:50.000Z,25.8
2023-04-22T14:22:06.000Z,26
2023-04-22T14:23:22.000Z,25.9
2023-04-22T14:24:38.000Z,26.7
2023-04-22T14:25:54.000Z,26.5
2023-04-22T14:27:10.000Z,25.9
2023-04-22T14:28:26.000Z,25.2
2023-04-22T14:29:42.000Z,24.7
2023-04-22T14:30:58.000Z,24.4
2023-04-22T14:32:15.000Z,24.1
2023-04-22T14:33:31.000Z,24
2023-04-22T14:34:47.000Z,24
2023-04-22T14:36:03.000Z,23.8
2023-04-22T14:37:20.000Z,23.5
2023-04-22T14:38:36.000Z,23.4
2023-04-22T14:39:52.000Z,22.9
2023-04-22T14:41:08.000Z,22.8
2023-04-22T14:42:25.000Z,22.7
2023-04-22T14:43:40.000Z,22.7
2023-04-22T14:44:56.000Z,22.7
2023-04-22T14:46:12.000Z,22.8
2023-04-22T14:47:28.000Z,22.8
2023-04-22T14:48:45.000Z,22.8
2023-04-22T14:50:01.000Z,22.8
2023-04-22T14:51:17.000Z,22.8
2023-04-22T14:52:33.000Z,22.7
2023-04-22T14:53:50.000Z,22.7
2023-04-22T14:55:06.000Z,22.6
2023-04-22T14:56:22.000Z,22.6
2023-04-22T14:57:38.000Z,22.6
2023-04-22T14:58:55.000Z,22.4
2023-04-22T15:00:11.000Z,22.5
2023-04-22T15:01:26.000Z,22.4
2023-04-22T15:02:42.000Z,22.3
2023-04-22T15:03:59.000Z,22.2
2023-04-22T15:05:15.000Z,22.2
2023-04-22T15:06:31.000Z,22.1
2023-04-22T15:07:47.000Z,22
2023-04-22T15:09:03.000Z,22
2023-04-22T15:10:20.000Z,22
2023-04-22T15:11:36.000Z,21.9
2023-04-22T15:12:52.000Z,21.8
2023-04-22T15:14:08.000Z,21.8
2023-04-22T15:15:25.000Z,21.8
2023-04-22T15:16:41.000Z,21.8
2023-04-22T15:17:57.000Z,21.7
2023-04-22T15:19:12.000Z,21.7
2023-04-22T15:20:29.000Z,21.6
2023-04-22T15:21:45.000Z,21.5
2023-04-22T15:23:01.000Z,21.4
2023-04-22T15:24:17.000Z,21.3
2023-04-22T15:25:34.000Z,21.3
2023-04-22T15:26:50.000Z,21.1
2023-04-22T15:28:06.000Z,21
2023-04-22T15:29:22.000Z,20.9
2023-04-22T15:30:38.000Z,20.6
2023-04-22T15:31:55.000Z,20.1
2023-04-22T15:33:11.000Z,19.8
2023-04-22T15:34:27.000Z,19.7
2023-04-22T15:35:42.000Z,19.7
2023-04-22T15:36:59.000Z,19.6
2023-04-22T15:38:15.000Z,19.6
2023-04-22T15:39:31.000Z,19.6
2023-04-22T15:40:47.000Z,19.6
2023-04-22T15:42:04.000Z,19.5
2023-04-22T15:43:20.000Z,19.4
2023-04-22T15:44:36.000Z,19.2
2023-04-22T15:45:52.000Z,19.1
2023-04-22T15:47:09.000Z,18.9
2023-04-22T15:48:25.000Z,18.8
2023-04-22T15:49:41.000Z,18.7
2023-04-22T15:50:57.000Z,18.6
2023-04-22T15:52:12.000Z,18.6
2023-04-22T15:53:29.000Z,18.5
2023-04-22T15:54:45.000Z,18.5
2023-04-22T15:56:01.000Z,18.4
2023-04-22T15:57:17.000Z,18.3
2023-04-22T15:58:34.000Z,18.3
2023-04-22T15:59:50.000Z,18.3
2023-04-22T16:01:06.000Z,18.2
2023-04-22T16:02:22.000Z,18.2
2023-04-22T16:03:39.000Z,18.1
2023-04-22T16:04:55.000Z,18
2023-04-22T16:06:11.000Z,17.9
2023-04-22T16:07:27.000Z,17.8
2023-04-22T16:08:43.000Z,17.8
2023-04-22T16:09:59.000Z,17.7
2023-04-22T16:11:15.000Z,17.7
2023-04-22T16:12:31.000Z,17.7
2023-04-22T16:13:47.000Z,17.7
2023-04-22T16:15:04.000Z,17.7
2023-04-22T16:16:20.000Z,17.7
2023-04-22T16:17:36.000Z,17.7
2023-04-22T16:18:52.000Z,17.7
2023-04-22T16:20:09.000Z,17.6
2023-04-22T16:21:25.000Z,17.4
2023-04-22T16:22:41.000Z,17.5
2023-04-22T16:23:57.000Z,17.5
2023-04-22T16:25:13.000Z,17.5
2023-04-22T16:26:29.000Z,17.4
2023-04-22T16:27:45.000Z,17.4
2023-04-22T16:29:01.000Z,17.4
2023-04-22T16:30:18.000Z,17.5
2023-04-22T16:31:34.000Z,17.5
2023-04-22T16:32:50.000Z,17.5
2023-04-22T16:34:06.000Z,17.5
2023-04-22T16:35:22.000Z,17.5
2023-04-22T16:36:39.000Z,17.4
2023-04-22T16:37:55.000Z,17.5
2023-04-22T16:39:11.000Z,17.5
2023-04-22T16:40:27.000Z,17.6
2023-04-22T16:41:44.000Z,17.6
2023-04-22T16:42:59.000Z,17.6
2023-04-22T16:44:15.000Z,17.6
2023-04-22T16:45:31.000Z,17.5
2023-04-22T16:46:48.000Z,17.4
2023-04-22T16:48:04.000Z,17.4
2023-04-22T16:49:20.000Z,17.2
2023-04-22T16:50:36.000Z,17.1
2023-04-22T16:51:53.000Z,17.1
2023-04-22T16:53:09.000Z,17
2023-04-22T16:54:25.000Z,17
2023-04-22T16:55:41.000Z,16.9
2023-04-22T16:56:57.000Z,16.9
2023-04-22T16:58:14.000Z,16.9
2023-04-22T16:59:29.000Z,16.8
2023-04-22T17:00:45.000Z,16.8
2023-04-22T17:02:01.000Z,16.8
2023-04-22T17:03:18.000Z,16.8
2023-04-22T17:04:34.000Z,16.7
2023-04-22T17:05:50.000Z,16.7
2023-04-22T17:07:06.000Z,16.7
2023-04-22T17:08:23.000Z,16.6
2023-04-22T17:09:39.000Z,16.6
2023-04-22T17:10:55.000Z,16.6
2023-04-22T17:12:11.000Z,16.6